Time;durP1;ratioP1;P1;durP2;ratioP2;P2;SDS_P1;SDS_P2;PMS_P1;PMS_P2;Temp;Humidity;BMP_temperature;BMP_pressure;BME280_temperature;BME280_humidity;BME280_pressure;Samples;Min_cycle;Max_cycle;Signal;HPM_P1;HPM_P2
2022/08/21 00:00:23;;;;;;;4.70;1.90;;;;;;;20.46;70.18;98542.71;104779;1271;62162;-24
2022/08/21 00:03:02;;;;;;;6.10;1.90;;;;;;;20.23;70.80;98541.87;104815;1271;61911;-24
2022/08/21 00:05:30;;;;;;;2.70;2.10;;;;;;;19.95;71.28;98543.70;105106;1271;75517;-24
2022/08/21 00:07:57;;;;;;;3.60;2.10;;;;;;;19.73;72.28;98547.35;104851;1271;75884;-24
2022/08/21 00:10:25;;;;;;;3.70;1.90;;;;;;;19.61;72.95;98546.93;105023;1271;75462;-24
2022/08/21 00:12:52;;;;;;;5.30;2.10;;;;;;;19.94;72.81;98550.67;104843;1271;62801;-24
2022/08/21 00:15:23;;;;;;;2.40;1.60;;;;;;;20.47;71.00;98551.06;104765;1271;62252;-24
2022/08/21 00:17:50;;;;;;;2.50;1.70;;;;;;;20.47;70.43;98551.84;104945;1272;76395;-25
2022/08/21 00:20:17;;;;;;;4.00;2.20;;;;;;;20.18;71.77;98554.14;104631;1271;76992;-24
2022/08/21 00:22:45;;;;;;;3.90;1.90;;;;;;;20.06;71.71;98556.59;105020;1271;75412;-24
2022/08/21 00:25:13;;;;;;;4.60;1.90;;;;;;;19.79;72.46;98554.56;104892;1271;62939;-24
2022/08/21 00:27:42;;;;;;;2.70;2.20;;;;;;;19.52;73.64;98556.51;104799;1271;61490;-24
2022/08/21 00:30:10;;;;;;;3.20;1.70;;;;;;;19.30;74.44;98556.02;104919;1271;75253;-24
2022/08/21 00:32:48;;;;;;;3.90;1.70;;;;;;;19.73;73.66;98552.27;104610;1271;77137;-24
2022/08/21 00:35:17;;;;;;;3.80;1.90;;;;;;;20.13;71.78;98551.00;104763;1271;74123;-24
2022/08/21 00:37:44;;;;;;;2.50;1.70;;;;;;;20.22;70.97;98547.97;104668;1274;62850;-24
2022/08/21 00:40:14;;;;;;;4.20;2.10;;;;;;;20.07;71.40;98550.08;104768;1272;61704;-24
2022/08/21 00:42:42;;;;;;;4.10;2.00;;;;;;;19.89;71.56;98542.91;104634;1271;76875;-24
2022/08/21 00:45:23;;;;;;;4.00;2.30;;;;;;;19.66;72.25;98542.52;104679;1271;76845;-24
2022/08/21 00:47:51;;;;;;;2.70;2.00;;;;;;;19.47;73.73;98544.41;104573;1274;75233;-24
2022/08/21 00:50:18;;;;;;;4.70;2.10;;;;;;;19.89;73.01;98542.13;104717;1273;62948;-24
2022/08/21 00:52:50;;;;;;;4.50;2.10;;;;;;;20.42;70.97;98543.61;105083;1270;62770;-24
2022/08/21 00:55:17;;;;;;;4.40;2.50;;;;;;;20.43;70.59;98545.76;105085;1271;76805;-25
2022/08/21 00:57:47;;;;;;;3.90;2.40;;;;;;;20.23;70.76;98546.80;104963;1271;75937;-24
2022/08/21 01:00:20;;;;;;;3.20;2.20;;;;;;;19.98;71.34;98548.19;104642;1271;74350;-24
2022/08/21 01:02:47;;;;;;;5.60;2.90;;;;;;;19.69;72.40;98545.17;104853;1271;61313;-24
2022/08/21 01:05:14;;;;;;;3.80;2.30;;;;;;;19.42;74.05;98540.73;104673;1274;62860;-24
2022/08/21 01:07:42;;;;;;;4.90;2.10;;;;;;;19.25;74.74;98537.83;105037;1271;75791;-24
2022/08/21 01:10:09;;;;;;;5.70;2.80;;;;;;;19.55;74.12;98531.95;104867;1271;77086;-24
2022/08/21 01:12:51;;;;;;;5.40;2.90;;;;;;;20.00;72.83;98533.84;104736;1271;75588;-23
2022/08/21 01:15:18;;;;;;;3.70;2.40;;;;;;;20.03;72.27;98534.39;104619;1274;63227;-24
2022/08/21 01:17:45;;;;;;;5.50;2.50;;;;;;;19.93;72.48;98531.42;104692;1274;61013;-24
2022/08/21 01:20:12;;;;;;;5.00;2.40;;;;;;;19.68;73.39;98532.61;104825;1274;75313;-24
2022/08/21 01:22:39;;;;;;;2.90;2.40;;;;;;;19.46;74.15;98531.42;104838;1274;75639;-24
2022/08/21 01:25:07;;;;;;;3.50;1.90;;;;;;;19.32;74.70;98532.16;104681;1274;74440;-24
2022/08/21 01:27:34;;;;;;;3.50;2.00;;;;;;;19.40;75.05;98532.65;104786;1274;61147;-24
2022/08/21 01:30:09;;;;;;;3.10;2.10;;;;;;;20.01;73.12;98534.61;105099;1274;62750;-24
2022/08/21 01:32:36;;;;;;;2.50;1.80;;;;;;;20.06;72.27;98537.98;104790;1274;75238;-24
2022/08/21 01:35:04;;;;;;;6.00;2.20;;;;;;;19.89;72.63;98538.44;105061;1274;76000;-24
2022/08/21 01:37:31;;;;;;;2.50;1.90;;;;;;;19.73;72.65;98539.34;105103;1274;75408;-24
2022/08/21 01:39:58;;;;;;;2.10;1.80;;;;;;;19.55;73.35;98536.77;104812;1274;61771;-24
2022/08/21 01:42:25;;;;;;;2.00;1.40;;;;;;;19.33;74.52;98532.89;104746;1274;61826;-24
2022/08/21 01:44:52;;;;;;;2.00;1.50;;;;;;;19.44;74.89;98527.47;104776;1274;74708;-24
2022/08/21 01:47:22;;;;;;;2.00;1.70;;;;;;;19.86;73.32;98524.61;104743;1274;75828;-25
2022/08/21 01:49:49;;;;;;;9.10;1.90;;;;;;;19.90;72.70;98521.89;104868;1274;75290;-24
2022/08/21 01:52:16;;;;;;;2.30;1.80;;;;;;;19.71;73.03;98521.79;104823;1274;63061;-24
2022/08/21 01:54:43;;;;;;;2.90;1.80;;;;;;;19.45;74.05;98524.40;105039;1274;63428;-24
2022/08/21 01:57:11;;;;;;;2.10;1.90;;;;;;;19.32;74.30;98528.75;104880;1274;76516;-24
2022/08/21 01:59:39;;;;;;;5.70;2.00;;;;;;;19.18;75.12;98527.36;104621;1274;76741;-24
2022/08/21 02:02:06;;;;;;;1.70;1.40;;;;;;;19.45;75.08;98523.13;104724;1274;74090;-25
2022/08/21 02:04:33;;;;;;;3.90;2.10;;;;;;;19.69;73.70;98519.30;104709;1274;63171;-24
2022/08/21 02:07:00;;;;;;;5.70;2.40;;;;;;;19.63;74.03;98521.29;104893;1274;62493;-24
2022/08/21 02:09:28;;;;;;;4.30;2.10;;;;;;;19.42;74.46;98521.98;104929;1274;74464;-24
2022/08/21 02:11:56;;;;;;;4.20;2.10;;;;;;;19.27;75.30;98521.62;104710;1274;77172;-24
2022/08/21 02:14:23;;;;;;;1.80;1.50;;;;;;;19.18;75.22;98522.94;104733;1274;75392;-24
2022/08/21 02:16:59;;;;;;;3.40;1.90;;;;;;;19.62;74.34;98522.83;104854;1272;61815;-24
2022/08/21 02:19:36;;;;;;;3.10;1.80;;;;;;;20.01;73.11;98519.51;105033;1271;62179;-24
2022/08/21 02:22:08;;;;;;;2.10;1.90;;;;;;;19.98;72.97;98521.64;104646;1274;74465;-24
2022/08/21 02:24:36;;;;;;;5.20;2.60;;;;;;;19.52;74.87;98520.11;104917;1271;76721;-24
2022/08/21 02:27:22;;;;;;;3.70;2.10;;;;;;;19.30;75.55;98518.58;103761;1271;71963;-24
2022/08/21 02:29:54;;;;;;;3.90;2.60;;;;;;;19.11;75.88;98516.04;104862;1271;62827;-24
2022/08/21 02:32:21;;;;;;;2.60;1.90;;;;;;;19.01;76.66;98514.92;104772;1271;61975;-24
2022/08/21 02:34:48;;;;;;;3.90;2.10;;;;;;;19.44;75.88;98512.27;105065;1271;75265;-24
2022/08/21 02:37:15;;;;;;;3.00;1.90;;;;;;;19.85;73.81;98511.67;105132;1271;76380;-24
2022/08/21 02:39:42;;;;;;;4.70;2.40;;;;;;;19.92;73.43;98514.84;104836;1271;74373;-24
2022/08/21 02:42:09;;;;;;;4.80;2.60;;;;;;;19.69;74.13;98515.94;104908;1271;62001;-24
2022/08/21 02:44:37;;;;;;;2.80;2.40;;;;;;;19.45;75.30;98520.45;104757;1271;63161;-24
2022/08/21 02:47:04;;;;;;;5.90;2.70;;;;;;;19.16;76.65;98519.67;105033;1271;76284;-24
2022/08/21 02:49:31;;;;;;;3.90;2.40;;;;;;;19.00;77.35;98519.38;105056;1271;76985;-24
2022/08/21 02:51:58;;;;;;;3.90;2.90;;;;;;;19.20;77.19;98517.26;105054;1271;74146;-24
2022/08/21 02:54:26;;;;;;;4.80;2.50;;;;;;;19.65;75.38;98513.27;104791;1271;61839;-24
2022/08/21 02:56:53;;;;;;;4.10;2.60;;;;;;;19.68;75.07;98516.11;104754;1274;62671;-25
2022/08/21 02:59:20;;;;;;;3.50;2.70;;;;;;;19.22;77.05;98514.35;104757;1271;76595;-25
2022/08/21 03:01:47;;;;;;;6.00;3.00;;;;;;;19.04;77.81;98520.54;104872;1271;75924;-24
2022/08/21 03:04:14;;;;;;;4.00;2.50;;;;;;;18.86;78.49;98524.53;104758;1272;74441;-24
2022/08/21 03:06:42;;;;;;;10.10;2.60;;;;;;;19.30;77.11;98520.38;104708;1271;61781;-24
2022/08/21 03:09:09;;;;;;;4.80;2.70;;;;;;;19.69;75.39;98521.61;104791;1272;61728;-24
2022/08/21 03:11:36;;;;;;;6.50;3.30;;;;;;;19.66;75.22;98518.27;104786;1271;75574;-24
2022/08/21 03:14:05;;;;;;;4.20;3.00;;;;;;;19.25;76.95;98520.66;104828;1271;76904;-24
2022/08/21 03:16:32;;;;;;;4.90;3.10;;;;;;;18.98;77.77;98522.89;104973;1271;74360;-24
2022/08/21 03:19:02;;;;;;;4.80;2.30;;;;;;;18.88;78.64;98523.52;104847;1273;63549;-25
2022/08/21 03:21:29;;;;;;;5.10;2.70;;;;;;;19.23;78.03;98521.21;104859;1271;61704;-24
2022/08/21 03:23:55;;;;;;;5.20;3.20;;;;;;;19.54;76.45;98517.89;105074;1271;76797;-24
2022/08/21 03:26:24;;;;;;;3.80;2.30;;;;;;;19.61;76.16;98516.98;104798;1271;76887;-24
2022/08/21 03:28:53;;;;;;;3.80;3.30;;;;;;;19.55;75.90;98518.27;105109;1271;75511;-24
2022/08/21 03:31:21;;;;;;;5.20;3.20;;;;;;;19.36;76.42;98520.98;105079;1271;61987;-23
2022/08/21 03:33:48;;;;;;;5.20;2.60;;;;;;;19.16;77.76;98519.84;105118;1271;62524;-24
2022/08/21 03:36:15;;;;;;;4.90;3.10;;;;;;;19.42;77.31;98518.12;104866;1271;76801;-24
2022/08/21 03:38:42;;;;;;;5.20;2.90;;;;;;;19.83;75.90;98519.95;104987;1272;76912;-24
2022/08/21 03:41:09;;;;;;;8.80;3.60;;;;;;;19.86;75.40;98521.52;105103;1271;74348;-25
2022/08/21 03:43:38;;;;;;;5.90;3.40;;;;;;;19.80;75.19;98525.89;104831;1271;63091;-25
2022/08/21 03:46:05;;;;;;;5.40;3.30;;;;;;;19.56;76.06;98526.59;105110;1271;62019;-25
2022/08/21 03:48:33;;;;;;;7.60;2.40;;;;;;;19.51;76.27;98524.61;105102;1271;76268;-24
2022/08/21 03:51:00;;;;;;;10.40;2.90;;;;;;;20.01;75.80;98520.38;104818;1274;76742;-24
2022/08/21 03:53:27;;;;;;;7.20;3.50;;;;;;;20.66;73.60;98527.40;104740;1274;74410;-24
2022/08/21 03:55:54;;;;;;;5.30;3.70;;;;;;;20.94;72.53;98529.19;105080;1271;63191;-24
2022/08/21 03:58:23;;;;;;;7.20;3.80;;;;;;;21.03;71.70;98529.64;105110;1271;62063;-24
2022/08/21 04:00:52;;;;;;;6.90;4.10;;;;;;;20.98;71.45;98532.82;104684;1272;75478;-24
2022/08/21 04:03:19;;;;;;;9.70;4.50;;;;;;;20.88;71.75;98534.42;104783;1271;77111;-24
2022/08/21 04:05:46;;;;;;;6.30;3.30;;;;;;;20.64;72.20;98538.91;104982;1271;74349;-24
2022/08/21 04:08:14;;;;;;;7.00;3.60;;;;;;;20.69;72.52;98536.44;104836;1271;63116;-24
2022/08/21 04:10:42;;;;;;;10.10;3.90;;;;;;;20.70;72.60;98532.53;104671;1271;62771;-24
2022/08/21 04:13:09;;;;;;;6.10;3.50;;;;;;;20.62;72.70;98533.30;104697;1272;75365;-23
2022/08/21 04:15:36;;;;;;;8.20;4.10;;;;;;;20.56;73.16;98534.39;104831;1271;76871;-24
2022/08/21 04:18:03;;;;;;;9.30;3.90;;;;;;;20.76;72.55;98536.94;104994;1271;74139;-24
2022/08/21 04:20:30;;;;;;;8.10;4.60;;;;;;;20.73;72.75;98535.91;104969;1271;62014;-24
2022/08/21 04:22:57;;;;;;;10.50;3.20;;;;;;;20.67;73.07;98535.25;105083;1273;61688;-23
2022/08/21 04:25:25;;;;;;;14.20;3.60;;;;;;;21.16;71.73;98527.54;105022;1271;76587;-24
2022/08/21 04:27:52;;;;;;;8.10;3.80;;;;;;;21.65;69.97;98525.46;104970;1270;76976;-24
2022/08/21 04:30:20;;;;;;;7.00;3.80;;;;;;;21.65;69.68;98526.48;104757;1274;75729;-24
2022/08/21 04:32:55;;;;;;;8.40;4.10;;;;;;;21.35;70.72;98521.95;104742;1271;62068;-24
2022/08/21 04:35:23;;;;;;;7.20;4.70;;;;;;;21.11;71.43;98521.02;104770;1271;62828;-24
2022/08/21 04:37:50;;;;;;;9.50;4.10;;;;;;;20.87;72.14;98521.92;105156;1271;76570;-24
2022/08/21 04:40:18;;;;;;;6.60;3.50;;;;;;;20.62;73.13;98521.30;104859;1274;76887;-24
2022/08/21 04:42:51;;;;;;;7.60;3.90;;;;;;;21.16;71.96;98518.90;104915;1271;75277;-24
2022/08/21 04:45:21;;;;;;;6.80;3.90;;;;;;;21.48;70.37;98521.30;104774;1271;61137;-24
2022/08/21 04:47:50;;;;;;;8.70;4.40;;;;;;;21.67;69.97;98521.13;104771;1271;61248;-24
2022/08/21 04:50:20;;;;;;;8.50;4.40;;;;;;;21.81;69.17;98521.44;104914;1272;76724;-24
2022/08/21 04:52:52;;;;;;;7.30;4.50;;;;;;;21.89;68.99;98518.27;104812;1271;76966;-24
2022/08/21 04:55:20;;;;;;;11.10;4.20;;;;;;;21.91;68.99;98521.02;105070;1271;74368;-24
2022/08/21 04:57:47;;;;;;;8.70;4.70;;;;;;;21.97;68.97;98523.04;104603;1274;61097;-23
2022/08/21 05:00:18;;;;;;;11.80;4.70;;;;;;;22.09;68.45;98520.64;104940;1271;62777;-23
2022/08/21 05:02:52;;;;;;;8.50;3.70;;;;;;;22.16;69.21;98518.14;104633;1274;76660;-23
2022/08/21 05:05:19;;;;;;;6.80;3.60;;;;;;;22.95;67.76;98516.81;105072;1271;74915;-24
2022/08/21 05:07:46;;;;;;;10.70;4.20;;;;;;;23.80;63.78;98508.50;104964;1274;75468;-24
2022/08/21 05:10:13;;;;;;;9.10;4.70;;;;;;;24.08;63.22;98506.55;104912;1271;62099;-24
2022/08/21 05:12:41;;;;;;;8.80;4.20;;;;;;;23.97;63.05;98504.34;104672;1272;61735;-24
2022/08/21 05:15:11;;;;;;;9.00;4.70;;;;;;;23.66;63.77;98502.75;104634;1274;76567;-24
2022/08/21 05:17:42;;;;;;;10.80;4.30;;;;;;;23.44;63.99;98501.48;104719;1274;77114;-23
2022/08/21 05:20:19;;;;;;;10.50;5.20;;;;;;;23.16;64.70;98500.61;104677;1274;73943;-24
2022/08/21 05:22:46;;;;;;;10.50;5.70;;;;;;;22.81;65.75;98500.61;104864;1274;63068;-24
2022/08/21 05:25:13;;;;;;;9.00;5.60;;;;;;;22.13;67.93;98502.91;104694;1274;61821;-24
2022/08/21 05:27:42;;;;;;;8.10;4.70;;;;;;;22.07;68.24;98505.56;104716;1274;76604;-24
2022/08/21 05:30:10;;;;;;;6.50;3.30;;;;;;;22.09;68.20;98511.98;104922;1274;76422;-23
2022/08/21 05:32:37;;;;;;;8.30;3.90;;;;;;;22.58;67.41;98514.93;104571;1274;74443;-24
2022/08/21 05:35:05;;;;;;;5.60;3.70;;;;;;;23.22;65.70;98506.32;104580;1274;61896;-23
2022/08/21 05:37:33;;;;;;;9.10;4.90;;;;;;;23.42;64.57;98508.08;104613;1274;62045;-24
2022/08/21 05:40:00;;;;;;;12.00;4.50;;;;;;;22.94;65.48;98507.12;104705;1274;76598;-24
2022/08/21 05:42:46;;;;;;;12.30;5.10;;;;;;;22.87;66.43;98508.39;104966;1274;75832;-25
2022/08/21 05:45:27;;;;;;;7.70;4.70;;;;;;;22.48;67.72;98510.88;104856;1274;74430;-24
2022/08/21 05:48:23;;;;;;;8.30;4.50;;;;;;;22.02;68.72;98512.52;104614;1274;62815;-24
2022/08/21 05:50:51;;;;;;;7.90;4.90;;;;;;;22.08;68.81;98511.13;104692;1274;63055;-24
2022/08/21 05:53:19;;;;;;;9.20;4.90;;;;;;;21.27;71.91;98505.27;104737;1274;76688;-24
2022/08/21 05:55:46;;;;;;;5.30;3.20;;;;;;;21.52;71.34;98505.04;104683;1274;75913;-24
2022/08/21 05:58:14;;;;;;;8.40;4.10;;;;;;;22.01;68.96;98504.98;104936;1274;75129;-24
2022/08/21 06:00:42;;;;;;;10.20;4.40;;;;;;;22.08;68.24;98499.64;104637;1274;61151;-24
2022/08/21 06:03:17;;;;;;;7.60;4.60;;;;;;;22.44;67.21;98499.48;104524;1274;61162;-24
2022/08/21 06:05:45;;;;;;;9.60;4.70;;;;;;;22.19;67.79;98504.86;104686;1276;76635;-24
2022/08/21 06:08:14;;;;;;;10.10;5.10;;;;;;;21.65;69.53;98508.73;105081;1274;76772;-24
2022/08/21 06:10:41;;;;;;;8.80;4.80;;;;;;;22.11;68.25;98509.66;104753;1274;75159;-24
2022/08/21 06:13:09;;;;;;;7.90;4.60;;;;;;;22.35;67.26;98507.42;104727;1275;61976;-24
2022/08/21 06:15:37;;;;;;;31.10;18.40;;;;;;;22.34;67.41;98508.73;104764;1274;62216;-24
2022/08/21 06:18:05;;;;;;;12.40;8.50;;;;;;;21.69;69.98;98507.55;104755;1273;76683;-24
2022/08/21 06:20:32;;;;;;;6.90;4.10;;;;;;;21.99;68.95;98507.37;104786;1274;75989;-24
2022/08/21 06:22:59;;;;;;;8.20;4.80;;;;;;;22.57;67.79;98501.15;104743;1274;75348;-23
2022/08/21 06:25:27;;;;;;;8.30;5.00;;;;;;;22.79;66.95;98502.68;104953;1274;62977;-24
2022/08/21 06:28:03;;;;;;;9.40;5.00;;;;;;;23.10;65.76;98505.81;105100;1274;62122;-24
2022/08/21 06:30:30;;;;;;;9.50;4.50;;;;;;;22.77;66.48;98505.71;104720;1274;75525;-24
2022/08/21 06:32:57;;;;;;;6.70;4.40;;;;;;;22.87;65.80;98503.71;104649;1274;76049;-24
2022/08/21 06:35:25;;;;;;;6.10;3.90;;;;;;;22.76;65.81;98505.08;104836;1274;74316;-24
2022/08/21 06:37:53;;;;;;;4.40;3.90;;;;;;;22.62;65.85;98505.52;104758;1274;61843;-24
2022/08/21 06:40:20;;;;;;;8.70;4.80;;;;;;;22.42;66.69;98508.77;105010;1274;61918;-24
2022/08/21 06:42:47;;;;;;;10.20;5.00;;;;;;;22.31;66.70;98506.14;105056;1274;75581;-24
2022/08/21 06:45:15;;;;;;;6.00;4.40;;;;;;;22.25;66.86;98508.27;104753;1274;76007;-24
2022/08/21 06:47:42;;;;;;;11.40;4.30;;;;;;;22.25;67.16;98503.40;104534;1274;75376;-24
2022/08/21 06:50:09;;;;;;;9.50;4.60;;;;;;;22.40;67.26;98499.48;104827;1274;61307;-24
2022/08/21 06:52:36;;;;;;;8.70;4.40;;;;;;;22.87;65.84;98494.96;104717;1274;61962;-24
2022/08/21 06:55:08;;;;;;;7.20;4.10;;;;;;;23.13;64.75;98500.15;105000;1274;75424;-24
2022/08/21 06:57:35;;;;;;;9.40;4.70;;;;;;;22.83;65.30;98506.77;104672;1274;75944;-23
2022/08/21 07:00:06;;;;;;;11.10;4.20;;;;;;;22.63;65.93;98507.92;105010;1274;75350;-23
2022/08/21 07:02:33;;;;;;;11.00;4.50;;;;;;;22.43;67.36;98510.39;104743;1274;63110;-23
2022/08/21 07:05:00;;;;;;;9.50;4.60;;;;;;;22.29;67.27;98508.14;105003;1274;61910;-23
2022/08/21 07:07:44;;;;;;;;;;;;;;;21.58;70.06;98507.98;104865;1274;76595;-23
2022/08/21 07:10:11;;;;;;;6.80;4.50;;;;;;;21.43;70.56;98503.27;104940;1274;75925;-23
2022/08/21 07:12:47;;;;;;;10.90;3.50;;;;;;;21.94;68.27;98510.33;104991;1274;75329;-23
2022/08/21 07:15:16;;;;;;;7.00;3.00;;;;;;;22.52;66.52;98508.74;105047;1274;62937;-23
2022/08/21 07:17:43;;;;;;;6.40;3.60;;;;;;;22.85;64.78;98508.05;105066;1274;61924;-23
2022/08/21 07:20:11;;;;;;;7.10;3.80;;;;;;;23.17;63.17;98510.36;105046;1274;76890;-23
2022/08/21 07:22:39;;;;;;;5.90;3.20;;;;;;;23.30;63.06;98508.58;104769;1275;76903;-23
2022/08/21 07:25:07;;;;;;;5.20;3.50;;;;;;;23.29;62.81;98505.52;104573;1276;75342;-23
2022/08/21 07:27:34;;;;;;;6.20;3.50;;;;;;;23.34;63.17;98504.98;104653;1274;62907;-23
2022/08/21 07:30:01;;;;;;;14.40;3.90;;;;;;;22.17;65.99;98510.23;105002;1274;61534;-23
2022/08/21 07:32:29;;;;;;;8.70;2.90;;;;;;;22.06;66.73;98508.98;105046;1274;75694;-23
2022/08/21 07:34:56;;;;;;;5.20;3.10;;;;;;;22.38;65.60;98507.81;105019;1274;77008;-23
2022/08/21 07:37:23;;;;;;;5.90;3.00;;;;;;;22.71;64.06;98500.09;104735;1271;74172;-23
2022/08/21 07:39:51;;;;;;;5.30;3.20;;;;;;;22.77;62.50;98500.13;104734;1274;61989;-23
2022/08/21 07:42:18;;;;;;;4.30;2.50;;;;;;;22.60;62.40;98500.47;104994;1274;63344;-23
2022/08/21 07:44:45;;;;;;;7.20;2.50;;;;;;;22.91;62.05;98497.62;104781;1274;76297;-23
2022/08/21 07:47:15;;;;;;;4.70;2.80;;;;;;;23.22;61.10;98495.58;105005;1274;77083;-23
2022/08/21 07:50:02;;;;;;;8.80;3.50;;;;;;;23.64;60.44;98492.67;104760;1273;75328;-23
2022/08/21 07:52:32;;;;;;;6.10;2.90;;;;;;;23.84;59.75;98489.69;104897;1274;63141;-23
2022/08/21 07:54:59;;;;;;;5.50;3.10;;;;;;;24.17;59.43;98488.90;104745;1274;61755;-23
2022/08/21 07:57:32;;;;;;;7.20;3.00;;;;;;;24.04;59.12;98486.07;104714;1275;77202;-23
2022/08/21 07:59:59;;;;;;;7.60;3.20;;;;;;;24.34;60.17;98483.63;105133;1272;75929;-23
2022/08/21 08:02:28;;;;;;;5.40;3.40;;;;;;;24.37;59.60;98478.33;104867;1274;75458;-23
2022/08/21 08:05:08;;;;;;;5.80;3.20;;;;;;;23.61;61.01;98478.45;104885;1274;61980;-23
2022/08/21 08:07:35;;;;;;;4.90;3.00;;;;;;;23.91;60.37;98477.39;104874;1274;61787;-23
2022/08/21 08:10:03;;;;;;;12.90;3.30;;;;;;;23.73;61.08;98470.64;104910;1274;75626;-23
2022/08/21 08:12:30;;;;;;;8.40;3.30;;;;;;;23.68;61.42;98469.38;104514;1274;76676;-23
2022/08/21 08:14:58;;;;;;;5.90;3.20;;;;;;;23.80;61.36;98469.98;104707;1271;74339;-23
2022/08/21 08:17:26;;;;;;;4.60;3.10;;;;;;;24.43;59.80;98469.09;104760;1271;61722;-23
2022/08/21 08:19:53;;;;;;;5.50;2.80;;;;;;;24.81;58.72;98468.73;104855;1271;61812;-23
2022/08/21 08:22:23;;;;;;;7.40;2.90;;;;;;;24.96;57.95;98465.73;105056;1271;76357;-23
2022/08/21 08:24:51;;;;;;;5.00;2.50;;;;;;;24.94;56.00;98464.73;104801;1274;77040;-23
2022/08/21 08:27:19;;;;;;;3.00;2.70;;;;;;;24.93;56.70;98466.03;104738;1271;75541;-23
2022/08/21 08:29:46;;;;;;;6.80;3.30;;;;;;;25.02;56.58;98466.23;104998;1271;62905;-23
2022/08/21 08:32:13;;;;;;;2.70;2.30;;;;;;;25.50;54.74;98460.75;105099;1271;63490;-23
2022/08/21 08:34:40;;;;;;;3.80;2.20;;;;;;;25.89;55.07;98461.84;104841;1271;76691;-23
2022/08/21 08:37:08;;;;;;;4.10;2.40;;;;;;;26.20;52.59;98463.30;105086;1272;76391;-23
2022/08/21 08:39:35;;;;;;;4.80;2.20;;;;;;;26.44;51.79;98465.16;104728;1274;74478;-23
2022/08/21 08:42:13;;;;;;;4.20;2.90;;;;;;;26.22;52.68;98462.48;104761;1271;62055;-23
2022/08/21 08:45:12;;;;;;;3.00;2.30;;;;;;;25.95;51.53;98462.32;104774;1271;61633;-23
2022/08/21 08:47:45;;;;;;;5.40;2.30;;;;;;;25.55;52.46;98456.70;104910;1272;76729;-23
2022/08/21 08:50:21;;;;;;;3.90;2.30;;;;;;;25.95;51.89;98457.56;105083;1274;77265;-23
2022/08/21 08:52:59;;;;;;;4.20;2.10;;;;;;;26.50;51.46;98451.16;104960;1271;75245;-23
2022/08/21 08:55:36;;;;;;;4.80;2.20;;;;;;;27.02;50.20;98447.73;104629;1271;62957;-23
2022/08/21 08:58:03;;;;;;;2.90;1.90;;;;;;;26.37;49.42;98448.90;104869;1271;62785;-23
2022/08/21 09:00:31;;;;;;;2.70;2.20;;;;;;;25.58;51.45;98451.77;104894;1272;76650;-23
2022/08/21 09:03:00;;;;;;;5.50;2.60;;;;;;;25.19;52.32;98452.02;104796;1271;75113;-23
2022/08/21 09:05:40;;;;;;;4.40;2.50;;;;;;;24.77;53.82;98452.58;104618;1274;75464;-22
2022/08/21 09:08:32;;;;;;;5.30;2.50;;;;;;;24.71;55.17;98452.77;104735;1271;61974;-23
2022/08/21 09:11:04;;;;;;;4.40;2.50;;;;;;;24.90;54.60;98449.06;104734;1274;61960;-23
2022/08/21 09:13:56;;;;;;;3.10;2.50;;;;;;;24.42;56.10;98447.31;104655;1274;76642;-23
2022/08/21 09:16:33;;;;;;;8.50;3.30;;;;;;;24.74;57.01;98450.75;105138;1274;76784;-23
2022/08/21 09:19:27;;;;;;;3.80;2.50;;;;;;;24.67;56.90;98447.92;104985;1272;75313;-23
2022/08/21 09:21:54;;;;;;;;;;;;;;;25.00;56.88;98444.38;104857;1271;63423;-23
2022/08/21 09:24:31;;;;;;;4.30;3.20;;;;;;;25.67;54.82;98444.38;105083;1274;61490;-23
2022/08/21 09:27:08;;;;;;;5.10;3.10;;;;;;;25.52;54.12;98445.39;104982;1274;74499;-23
2022/08/21 09:29:38;;;;;;;9.00;3.70;;;;;;;25.70;54.03;98444.38;104759;1274;73159;-23
2022/08/21 09:32:11;;;;;;;5.20;3.10;;;;;;;25.06;56.28;98444.20;104871;1272;75113;-23
2022/08/21 09:34:55;;;;;;;6.30;3.80;;;;;;;25.26;56.41;98444.50;105022;1272;62056;-23
2022/08/21 09:37:22;;;;;;;6.90;4.30;;;;;;;25.21;56.61;98443.64;104854;1271;62276;-23
2022/08/21 09:39:49;;;;;;;8.50;3.70;;;;;;;25.00;58.90;98444.35;105015;1272;75089;-23
2022/08/21 09:42:28;;;;;;;9.80;4.60;;;;;;;25.44;56.17;98441.30;104601;1274;77079;-23
2022/08/21 09:45:15;;;;;;;11.70;4.60;;;;;;;25.56;56.49;98443.42;104763;1272;74087;-23
2022/08/21 09:47:43;;;;;;;11.60;4.10;;;;;;;25.53;56.54;98447.48;104658;1272;61891;-24
2022/08/21 09:50:16;;;;;;;8.10;4.50;;;;;;;25.22;57.37;98443.67;104803;1272;62787;-24
2022/08/21 09:52:45;;;;;;;9.60;4.90;;;;;;;25.14;58.06;98442.60;105110;1274;74750;-24
2022/08/21 09:58:07;;;;;;;10.50;4.90;;;;;;;25.07;58.22;98448.59;104879;1274;75358;-24
2022/08/21 10:00:35;;;;;;;12.50;4.40;;;;;;;25.33;57.44;98446.60;105074;1272;63068;-24
2022/08/21 10:03:18;;;;;;;14.00;4.80;;;;;;;25.59;57.59;98450.59;105104;1274;63105;-24
2022/08/21 10:05:54;;;;;;;;;;;;;;;26.13;56.14;98443.70;104889;1274;76574;-24
2022/08/21 10:08:23;;;;;;;11.50;4.80;;;;;;;26.10;54.95;98441.60;104868;1272;76825;-24
2022/08/21 10:10:55;;;;;;;13.10;4.70;;;;;;;26.13;55.56;98447.80;104965;1271;73881;-24
2022/08/21 10:13:38;;;;;;;18.10;4.80;;;;;;;25.43;56.69;98446.44;104743;1272;63300;-24
2022/08/21 10:16:33;;;;;;;13.10;5.10;;;;;;;25.45;57.42;98449.16;104918;1272;61725;-24
2022/08/21 10:19:09;;;;;;;11.50;5.40;;;;;;;25.57;57.63;98451.85;105043;1271;75202;-24
2022/08/21 10:21:57;;;;;;;9.90;4.80;;;;;;;25.40;58.25;98449.30;105088;1271;76975;-23
2022/08/21 10:24:40;;;;;;;17.50;6.00;;;;;;;25.67;57.47;98455.68;104676;1274;74799;-24
2022/08/21 10:27:31;;;;;;;12.70;5.50;;;;;;;25.58;57.74;98455.35;104715;1272;61910;-24
2022/08/21 10:30:19;;;;;;;13.90;5.70;;;;;;;24.88;58.73;98449.41;104742;1271;62714;-24
2022/08/21 10:33:02;;;;;;;13.30;5.90;;;;;;;24.37;60.30;98442.84;104607;1271;76579;-24
2022/08/21 10:35:32;;;;;;;13.20;5.20;;;;;;;23.72;61.62;98443.11;104715;1274;77236;-22
2022/08/21 10:38:40;;;;;;;13.10;5.70;;;;;;;23.70;62.25;98445.98;104772;1275;74349;-23
2022/08/21 10:41:38;;;;;;;14.80;5.00;;;;;;;25.03;58.17;98443.60;105083;1272;62041;-23
2022/08/21 10:44:34;;;;;;;17.00;5.50;;;;;;;25.53;56.72;98436.23;105011;1271;63130;-23
2022/08/21 10:47:16;;;;;;;16.40;5.30;;;;;;;25.48;57.42;98436.19;105152;1271;76643;-23
2022/08/21 10:50:22;;;;;;;15.10;5.70;;;;;;;24.85;59.38;98443.76;105060;1271;76998;-22
2022/08/21 10:53:11;;;;;;;9.10;5.10;;;;;;;24.89;58.39;98443.53;104760;1271;74714;-23
2022/08/21 10:55:48;;;;;;;17.80;5.20;;;;;;;24.79;58.52;98445.95;105099;1271;62169;-22
2022/08/21 10:58:44;;;;;;;19.60;5.10;;;;;;;24.46;59.51;98450.17;104990;1271;63004;-23
2022/08/21 11:01:15;;;;;;;17.50;5.30;;;;;;;25.02;57.34;98446.73;105089;1274;74545;-23
2022/08/21 11:03:51;;;;;;;20.20;6.00;;;;;;;24.86;58.24;98444.80;104820;1271;75972;-23
2022/08/21 11:06:21;;;;;;;13.60;6.20;;;;;;;24.71;59.59;98445.44;104614;1272;74490;-23
2022/08/21 11:08:56;;;;;;;18.80;5.40;;;;;;;25.02;58.57;98445.63;104660;1272;63094;-23
2022/08/21 11:11:29;;;;;;;12.00;5.40;;;;;;;25.17;57.87;98443.46;104638;1271;61998;-23
2022/08/21 11:14:23;;;;;;;14.10;5.30;;;;;;;25.10;58.14;98449.23;104982;1272;76598;-23
2022/08/21 11:17:00;;;;;;;17.30;5.90;;;;;;;25.06;59.40;98442.92;104713;1274;76860;-23
2022/08/21 11:19:51;;;;;;;17.40;6.10;;;;;;;24.85;59.68;98443.61;104601;1274;75458;-23
2022/08/21 11:22:23;;;;;;;14.90;5.90;;;;;;;24.61;61.23;98443.16;104901;1272;65100;-23
2022/08/21 11:25:21;;;;;;;24.50;7.40;;;;;;;24.41;61.88;98448.67;104660;1272;61654;-23
2022/08/21 11:27:54;;;;;;;18.20;6.40;;;;;;;24.12;62.50;98447.41;104833;1274;74302;-23
2022/08/21 11:30:23;;;;;;;19.00;6.40;;;;;;;23.84;64.23;98450.09;104779;1271;76920;-23
2022/08/21 11:33:12;;;;;;;17.10;6.30;;;;;;;23.75;64.37;98450.42;104908;1271;72929;-26
2022/08/21 11:36:15;;;;;;;19.50;6.40;;;;;;;23.51;65.45;98451.23;105078;1271;62212;-23
2022/08/21 11:38:51;;;;;;;13.30;5.00;;;;;;;23.23;66.52;98450.66;104753;1271;61539;-24
2022/08/21 11:41:29;;;;;;;15.40;6.20;;;;;;;23.22;66.96;98449.28;105025;1271;76527;-24
2022/08/21 11:44:18;;;;;;;18.10;6.80;;;;;;;23.71;65.75;98449.54;104912;1271;76710;-24
2022/08/21 11:46:45;;;;;;;20.70;6.10;;;;;;;23.43;66.51;98450.07;104882;1271;75633;-24